createdAt,value
2022-10-15T00:01:44.729Z,33.3
2022-10-15T00:06:47.830Z,31
2022-10-15T00:11:51.111Z,29.4
2022-10-15T00:16:52.971Z,29.1
2022-10-15T00:21:55.126Z,27.3
2022-10-15T00:26:57.259Z,27.9
2022-10-15T00:31:59.112Z,29.7
2022-10-15T00:37:01.043Z,30
2022-10-15T00:42:03.046Z,31.1
2022-10-15T00:47:05.070Z,30.3
2022-10-15T00:52:06.999Z,31.7
2022-10-15T00:57:08.927Z,29.9
2022-10-15T01:02:11.004Z,33.2
2022-10-15T01:07:13.590Z,30.9
2022-10-15T01:12:16.529Z,32.5
2022-10-15T01:17:18.611Z,32.3
2022-10-15T01:22:21.390Z,34.1
2022-10-15T01:27:23.483Z,37.2
2022-10-15T01:32:26.940Z,36.3
2022-10-15T01:37:28.843Z,35.5
2022-10-15T01:42:31.047Z,35.3
2022-10-15T01:47:33.566Z,38.2
2022-10-15T01:52:35.521Z,35.2
2022-10-15T01:57:37.478Z,33.8
2022-10-15T02:02:39.845Z,34.7
2022-10-15T02:07:42.267Z,34.5
2022-10-15T02:12:44.885Z,36.1
2022-10-15T02:17:47.017Z,33.2
2022-10-15T02:22:48.914Z,36.1
2022-10-15T02:27:50.909Z,35.2
2022-10-15T02:32:53.054Z,37.9
2022-10-15T02:37:55.003Z,35.3
2022-10-15T02:42:56.965Z,34.8
2022-10-15T02:47:59.097Z,33.4
2022-10-15T02:53:01.041Z,32.9
2022-10-15T02:58:02.941Z,33.7
2022-10-15T03:03:04.899Z,36.6
2022-10-15T03:08:08.234Z,33.6
2022-10-15T03:13:10.245Z,37
2022-10-15T03:18:12.466Z,34.3
2022-10-15T03:23:14.681Z,34.9
2022-10-15T03:28:16.690Z,34.1
2022-10-15T03:33:19.821Z,35.5
2022-10-15T03:38:26.721Z,33.2
2022-10-15T03:43:28.621Z,31.1
2022-10-15T03:48:30.683Z,30.6
2022-10-15T03:53:32.649Z,28.3
2022-10-15T03:58:34.893Z,27.5
2022-10-15T04:03:36.953Z,25.7
2022-10-15T04:08:39.741Z,25.9
2022-10-15T04:13:41.950Z,22.9
2022-10-15T04:18:43.851Z,21.6
2022-10-15T04:23:47.176Z,21
2022-10-15T04:28:49.159Z,21.4
2022-10-15T04:33:52.072Z,23
2022-10-15T04:38:54.404Z,21.6
2022-10-15T04:43:56.433Z,22.2
2022-10-15T04:48:58.373Z,19.2
2022-10-15T04:54:00.665Z,19.4
2022-10-15T04:59:02.724Z,17.7
2022-10-15T05:04:04.731Z,18.3
2022-10-15T05:09:06.830Z,20.1
2022-10-15T05:14:08.919Z,22.4
2022-10-15T05:19:11.154Z,19.7
2022-10-15T05:24:13.215Z,21.2
2022-10-15T05:29:15.158Z,21.4
2022-10-15T05:34:17.135Z,18
2022-10-15T05:39:19.015Z,19.3
2022-10-15T05:44:21.121Z,18.2
2022-10-15T05:49:23.039Z,18.6
2022-10-15T05:54:24.977Z,20.9
2022-10-15T05:59:27.096Z,16.4
2022-10-15T06:04:30.580Z,18.5
2022-10-15T06:09:37.509Z,15.8
2022-10-15T06:14:39.406Z,17
2022-10-15T06:19:41.262Z,18
2022-10-15T06:24:43.151Z,14.2
2022-10-15T06:29:45.224Z,13.8
2022-10-15T06:34:47.151Z,14.2
2022-10-15T06:39:50.463Z,14.6
2022-10-15T06:44:52.553Z,14.1
2022-10-15T06:49:54.470Z,12.2
2022-10-15T06:54:56.390Z,13.2
2022-10-15T06:59:58.381Z,11.9
2022-10-15T07:05:01.057Z,10.5
2022-10-15T07:10:03.217Z,11.5
2022-10-15T07:15:05.129Z,9.3
2022-10-15T07:20:07.082Z,9.4
2022-10-15T07:25:08.991Z,11.8
2022-10-15T07:30:10.923Z,10
2022-10-15T07:35:12.769Z,11.2
2022-10-15T07:40:14.686Z,9.5
2022-10-15T07:45:16.677Z,18.2
2022-10-15T07:50:17.207Z,7.6
2022-10-15T07:55:19.438Z,7.8
2022-10-15T08:00:21.451Z,9.8
2022-10-15T08:05:24.667Z,8.3
2022-10-15T08:10:27.893Z,8
2022-10-15T08:15:30.377Z,7.5
2022-10-15T08:20:32.257Z,8.7
2022-10-15T08:25:34.220Z,8.6
2022-10-15T08:30:36.178Z,8.7
2022-10-15T08:35:38.106Z,8.2
2022-10-15T08:40:40.027Z,7.7
2022-10-15T08:45:41.933Z,9.5
2022-10-15T08:50:44.104Z,7.1
2022-10-15T08:55:53.607Z,6.7
2022-10-15T09:00:55.517Z,7.6
2022-10-15T09:05:57.679Z,6.7
2022-10-15T09:11:00.492Z,8
2022-10-15T09:16:02.404Z,9.7
2022-10-15T09:21:04.822Z,8.3
2022-10-15T09:26:07.073Z,15.8
2022-10-15T09:31:07.531Z,17.4
2022-10-15T09:36:07.911Z,12
2022-10-15T09:46:10.574Z,7.6
2022-10-15T09:51:16.057Z,7
2022-10-15T09:56:18.020Z,7.3
2022-10-15T10:01:19.864Z,12
2022-10-15T10:06:20.238Z,6.2
2022-10-15T10:11:24.786Z,7
2022-10-15T10:16:26.978Z,12.1
2022-10-15T10:21:27.475Z,6.5
2022-10-15T10:26:29.412Z,5.7
2022-10-15T10:31:31.390Z,8.3
2022-10-15T10:36:32.091Z,12.8
2022-10-15T10:41:32.541Z,4.9
2022-10-15T10:46:34.662Z,6.1
2022-10-15T10:51:36.642Z,6
2022-10-15T10:56:37.560Z,5.6
2022-10-15T11:01:39.599Z,5
2022-10-15T11:06:41.668Z,5.8
2022-10-15T11:11:43.759Z,5.8
2022-10-15T11:16:45.666Z,5.9
2022-10-15T11:21:47.800Z,10.1
2022-10-15T11:26:58.879Z,7.2
2022-10-15T11:32:01.573Z,6.6
2022-10-15T11:37:00.780Z,6.1
2022-10-15T11:42:02.677Z,6.6
2022-10-15T11:47:04.674Z,7.5
2022-10-15T11:52:06.785Z,6.2
2022-10-15T11:57:08.927Z,5
2022-10-15T12:02:10.926Z,6.3
2022-10-15T12:07:13.075Z,5.3
2022-10-15T12:12:15.623Z,6.8
2022-10-15T12:17:17.560Z,7.2
2022-10-15T12:22:19.767Z,11.8
2022-10-15T12:27:20.139Z,6.6
2022-10-15T12:32:23.621Z,7.9
2022-10-15T12:37:26.059Z,6.3
2022-10-15T12:42:28.850Z,8.3
2022-10-15T12:47:30.893Z,6.3
2022-10-15T12:52:33.010Z,7.6
2022-10-15T12:57:35.399Z,8.4
2022-10-15T13:02:37.910Z,8.2
2022-10-15T13:07:40.179Z,6.1
2022-10-15T13:12:42.214Z,6.5
2022-10-15T13:17:44.501Z,5.1
2022-10-15T13:22:46.634Z,5.1
2022-10-15T13:27:48.841Z,5.3
2022-10-15T13:32:51.704Z,6.4
2022-10-15T13:37:53.643Z,8.6
2022-10-15T13:42:55.959Z,4.9
2022-10-15T13:47:57.923Z,5.1
2022-10-15T13:53:00.572Z,8.9
2022-10-15T13:58:02.524Z,6.7
2022-10-15T14:03:04.509Z,5.5
2022-10-15T14:08:06.821Z,7
2022-10-15T14:13:08.962Z,5.5
2022-10-15T14:18:10.900Z,5.9
2022-10-15T14:23:12.829Z,5.9
2022-10-15T14:28:15.274Z,8.8
2022-10-15T14:33:17.683Z,7.7
2022-10-15T14:38:18.577Z,8.3
2022-10-15T14:43:20.584Z,8.1
2022-10-15T14:48:22.838Z,5.9
2022-10-15T14:53:24.852Z,7.2
2022-10-15T14:58:26.763Z,8.5
2022-10-15T15:03:29.278Z,10.2
2022-10-15T15:08:32.003Z,5.9
2022-10-15T15:13:34.012Z,7.1
2022-10-15T15:18:36.042Z,7.2
2022-10-15T15:23:38.100Z,8.8
2022-10-15T15:28:40.099Z,7.4
2022-10-15T15:33:42.284Z,6.8
2022-10-15T15:38:44.943Z,8.1
2022-10-15T15:43:47.092Z,7.9
2022-10-15T15:48:49.068Z,8.8
2022-10-15T15:53:51.425Z,9.2
2022-10-15T15:58:53.613Z,7.3
2022-10-15T16:03:55.528Z,7.9
2022-10-15T16:08:57.456Z,7.4
2022-10-15T16:13:59.642Z,7.5
2022-10-15T16:19:08.851Z,6.9
2022-10-15T16:24:11.603Z,7.1
2022-10-15T16:29:13.824Z,7.8
2022-10-15T16:34:15.778Z,8.6
2022-10-15T16:39:17.916Z,10.5
2022-10-15T16:40:29.888Z,9.6
2022-10-15T16:45:31.819Z,10.3
2022-10-15T16:50:33.809Z,9.2
2022-10-15T16:55:35.766Z,8.4
2022-10-15T17:00:38.440Z,8.7
2022-10-15T17:05:41.344Z,11.7
2022-10-15T17:10:43.218Z,13.8
2022-10-15T17:15:43.913Z,9.2
2022-10-15T17:20:45.784Z,6.8
2022-10-15T17:25:47.839Z,10.9
2022-10-15T17:30:49.707Z,8
2022-10-15T17:35:51.608Z,8.2
2022-10-15T17:40:53.484Z,6.9
2022-10-15T17:45:55.508Z,7.1
2022-10-15T17:50:57.560Z,8.2
2022-10-15T17:55:59.782Z,8.1
2022-10-15T18:01:03.658Z,8.9
2022-10-15T18:06:05.704Z,5.7
2022-10-15T18:11:07.888Z,8.2
2022-10-15T18:16:10.267Z,8
2022-10-15T18:21:12.139Z,11.2
2022-10-15T18:26:17.152Z,10.9
2022-10-15T18:31:21.969Z,8.9
2022-10-15T18:36:24.064Z,8.6
2022-10-15T18:41:26.416Z,7.4
2022-10-15T18:46:28.535Z,7
2022-10-15T18:51:30.585Z,7.9
2022-10-15T18:56:32.565Z,8.6
2022-10-15T19:01:34.636Z,9.6
2022-10-15T19:06:37.067Z,10.9
2022-10-15T19:11:39.547Z,7.9
2022-10-15T19:21:50.289Z,10.2
2022-10-15T19:26:52.568Z,11.1
2022-10-15T19:31:54.686Z,10.4
2022-10-15T19:36:56.709Z,11
2022-10-15T19:41:58.948Z,8.9
2022-10-15T19:47:00.893Z,10.6
2022-10-15T19:52:02.877Z,10
2022-10-15T19:57:04.966Z,8.5
2022-10-15T20:02:07.081Z,8.6
2022-10-15T20:07:09.133Z,10.2
2022-10-15T20:12:11.081Z,8.3
2022-10-15T20:17:13.562Z,7.5
2022-10-15T20:22:15.571Z,8.5
2022-10-15T20:27:18.514Z,8.2
2022-10-15T20:32:34.061Z,10.2
2022-10-15T20:37:28.471Z,7.4
2022-10-15T20:42:30.485Z,6.4
2022-10-15T20:47:32.535Z,7.8
2022-10-15T20:52:34.571Z,6.7
2022-10-15T20:57:36.541Z,6.7
2022-10-15T21:02:38.524Z,5.4
2022-10-15T21:07:41.665Z,6.9
2022-10-15T21:12:44.114Z,5.9
2022-10-15T21:17:46.238Z,5.4
2022-10-15T21:22:48.241Z,6.9
2022-10-15T21:27:50.420Z,5.2
2022-10-15T21:32:52.616Z,6
2022-10-15T21:37:54.592Z,6.9
2022-10-15T21:42:56.879Z,6
2022-10-15T21:47:58.832Z,6.3
2022-10-15T21:58:04.130Z,5.4
2022-10-15T22:03:06.114Z,6
2022-10-15T22:08:08.169Z,6.1
2022-10-15T22:13:10.562Z,5.8
2022-10-15T22:18:12.774Z,5.4
2022-10-15T22:23:14.860Z,4.6
2022-10-15T22:28:17.059Z,4.8
2022-10-15T22:33:19.492Z,5.4
2022-10-15T22:38:21.449Z,5.5
2022-10-15T22:43:23.725Z,5.1
2022-10-15T22:48:25.848Z,4.3
2022-10-15T22:53:27.778Z,7.2
2022-10-15T22:58:29.905Z,5.5
2022-10-15T23:03:31.806Z,5
2022-10-15T23:08:33.755Z,5.4
2022-10-15T23:13:35.999Z,5
2022-10-15T23:18:38.475Z,4.9
2022-10-15T23:23:40.368Z,6.1
2022-10-15T23:28:42.329Z,6
2022-10-15T23:33:44.733Z,5.8
2022-10-15T23:38:46.713Z,6.4
2022-10-15T23:43:49.191Z,5.1
2022-10-15T23:48:51.325Z,5.2
2022-10-15T23:53:53.561Z,5.1
2022-10-15T23:58:55.884Z,5
